Terminal Aerodrome Forecast
Issued by NWS Jackson, MS

Home | Current Version | Previous Version | Text Only | Print | Product List | Glossary On
Versions: 1 2 3 4 5 6 7 8 9 10 11 12 13 14 15 16 17 18 19 20
000
FTUS44 KJAN 051555 AAC
TAFGLH
TAF AMD
KGLH 051555Z 0516/0612 23006KT 2SM +TSRA SCT020 OVC040CB
     FM051700 24007KT P6SM VCTS SCT025 BKN050CB
     FM052300 19005KT P6SM FEW030 SCT150
     FM061000 18006KT 5SM BR BKN010 OVC020=

USA.gov is the U.S. government's official web portal to all federal, state and local government web resources and services.